createdAt,value
2023-07-31T00:50:48.788Z,62.15
2023-07-31T01:17:12.297Z,60.00
2023-07-31T02:00:29.844Z,59.55
2023-07-31T02:06:59.517Z,60.91
2023-07-31T02:18:48.912Z,63.56
2023-07-31T02:24:55.421Z,62.09
2023-07-31T02:27:39.764Z,60.82
2023-07-31T02:30:26.661Z,60.30
2023-07-31T02:35:42.428Z,61.00
2023-07-31T02:38:31.530Z,60.43
2023-07-31T02:41:26.666Z,60.32
2023-07-31T02:44:21.163Z,60.02
2023-07-31T02:47:13.924Z,59.78
2023-07-31T02:50:15.547Z,60.98
2023-07-31T02:52:58.394Z,63.04
2023-07-31T02:55:32.544Z,65.08
2023-07-31T02:58:07.516Z,64.53
2023-07-31T03:00:45.624Z,63.25
2023-07-31T03:03:22.427Z,63.30
2023-07-31T03:06:09.513Z,62.42
2023-07-31T03:08:45.737Z,62.40
2023-07-31T03:11:21.082Z,61.90
2023-07-31T03:13:50.368Z,61.34
2023-07-31T03:16:18.566Z,61.01
2023-07-31T03:18:52.425Z,61.03
2023-07-31T03:21:25.506Z,61.22
2023-07-31T03:23:54.898Z,61.51
2023-07-31T03:26:26.499Z,60.64
2023-07-31T03:28:54.601Z,60.39
2023-07-31T03:31:23.545Z,60.26
2023-07-31T03:33:51.387Z,59.96
2023-07-31T03:36:22.149Z,60.11
2023-07-31T03:38:49.977Z,60.50
2023-07-31T03:41:19.659Z,62.22
2023-07-31T03:43:57.418Z,63.86
2023-07-31T03:46:28.378Z,63.12
2023-07-31T03:48:56.102Z,63.00
2023-07-31T03:51:25.317Z,62.77
2023-07-31T03:53:56.273Z,62.97
2023-07-31T03:56:37.116Z,62.50
2023-07-31T03:59:13.372Z,62.08
2023-07-31T04:01:55.219Z,61.14
2023-07-31T04:04:25.808Z,61.20
2023-07-31T04:06:59.005Z,60.55
2023-07-31T04:09:33.905Z,60.79
2023-07-31T04:12:03.148Z,60.38
2023-07-31T04:14:33.850Z,60.36
2023-07-31T04:17:01.793Z,60.37
2023-07-31T04:19:30.231Z,59.92
2023-07-31T04:22:02.236Z,60.00
2023-07-31T04:24:43.624Z,59.58
2023-07-31T04:27:27.647Z,62.17
2023-07-31T04:29:57.031Z,62.69
2023-07-31T04:32:30.192Z,62.25
2023-07-31T04:38:39.594Z,61.49
2023-07-31T04:41:24.227Z,61.46
2023-07-31T04:44:08.927Z,61.37
2023-07-31T04:46:59.293Z,61.00
2023-07-31T04:58:30.125Z,60.27
2023-07-31T05:04:39.413Z,60.25
2023-07-31T06:02:42.168Z,60.80
2023-07-31T06:05:13.238Z,62.72
2023-07-31T06:07:59.369Z,62.76
2023-07-31T06:13:28.600Z,60.33
2023-07-31T06:15:56.234Z,59.21
2023-07-31T06:18:23.528Z,58.93
2023-07-31T06:20:55.288Z,60.31
2023-07-31T06:23:24.102Z,62.04
2023-07-31T06:26:01.276Z,62.99
2023-07-31T06:28:30.295Z,61.11
2023-07-31T06:31:11.552Z,60.15
2023-07-31T06:33:43.108Z,59.23
2023-07-31T06:36:11.940Z,59.20
2023-07-31T06:38:42.538Z,61.35
2023-07-31T06:41:14.091Z,62.64
2023-07-31T06:43:47.581Z,61.40
2023-07-31T06:46:14.971Z,60.41
2023-07-31T06:48:44.824Z,59.09
2023-07-31T06:51:14.725Z,59.64
2023-07-31T06:53:46.593Z,61.32
2023-07-31T06:56:14.214Z,62.25
2023-07-31T06:58:41.429Z,62.72
2023-07-31T07:01:10.379Z,61.17
2023-07-31T07:03:37.968Z,58.89
2023-07-31T07:06:05.327Z,59.89
2023-07-31T07:08:32.636Z,61.21
2023-07-31T07:11:00.221Z,62.49
2023-07-31T07:13:27.871Z,61.72
2023-07-31T07:15:56.237Z,59.44
2023-07-31T07:18:23.543Z,59.32
2023-07-31T07:20:53.600Z,60.65
2023-07-31T07:23:21.709Z,60.92
2023-07-31T07:25:49.257Z,62.23
2023-07-31T07:28:16.551Z,61.35
2023-07-31T07:30:51.305Z,59.69
2023-07-31T07:33:20.067Z,59.05
2023-07-31T07:35:47.664Z,60.09
2023-07-31T07:38:19.886Z,61.22
2023-07-31T07:40:51.498Z,61.77
2023-07-31T07:43:18.903Z,61.81
2023-07-31T07:45:46.363Z,60.50
2023-07-31T07:48:13.757Z,58.68
2023-07-31T07:50:41.127Z,59.12
2023-07-31T07:53:08.398Z,59.99
2023-07-31T07:55:36.245Z,60.39
2023-07-31T07:58:08.758Z,61.62
2023-07-31T08:00:36.039Z,62.59
2023-07-31T08:03:03.985Z,60.70
2023-07-31T08:05:34.934Z,59.55
2023-07-31T08:08:02.292Z,58.23
2023-07-31T08:10:30.544Z,59.69
2023-07-31T08:12:59.456Z,60.87
2023-07-31T08:15:27.093Z,61.95
2023-07-31T08:17:56.097Z,62.53
2023-07-31T08:20:23.506Z,61.10
2023-07-31T08:22:58.755Z,59.55
2023-07-31T08:25:26.064Z,59.15
2023-07-31T08:27:53.850Z,60.29
2023-07-31T08:30:22.430Z,61.80
2023-07-31T08:32:50.738Z,62.78
2023-07-31T08:35:18.863Z,61.09
2023-07-31T08:37:47.509Z,59.72
2023-07-31T08:40:18.880Z,58.45
2023-07-31T08:42:54.602Z,59.44
2023-07-31T08:45:22.018Z,60.62
2023-07-31T08:47:51.476Z,61.56
2023-07-31T08:50:22.006Z,62.04
2023-07-31T08:52:52.177Z,61.22
2023-07-31T08:55:26.415Z,59.65
2023-07-31T08:57:58.288Z,58.69
2023-07-31T09:00:27.030Z,59.71
2023-07-31T09:03:03.604Z,60.77
2023-07-31T09:05:32.912Z,61.45
2023-07-31T09:08:03.675Z,62.11
2023-07-31T09:10:32.130Z,62.61
2023-07-31T09:13:00.257Z,60.88
2023-07-31T09:15:37.490Z,59.09
2023-07-31T09:18:07.632Z,58.99
2023-07-31T09:20:35.381Z,60.35
2023-07-31T09:23:10.444Z,61.45
2023-07-31T09:26:07.021Z,62.61
2023-07-31T09:28:34.458Z,62.12
2023-07-31T09:31:01.891Z,60.31
2023-07-31T09:33:32.670Z,59.09
2023-07-31T09:36:11.028Z,59.47
2023-07-31T09:38:42.429Z,61.06
2023-07-31T09:42:15.891Z,62.33
2023-07-31T09:45:46.360Z,61.89
2023-07-31T09:48:19.313Z,60.24
2023-07-31T09:54:21.166Z,60.40
2023-07-31T09:57:31.284Z,61.99
2023-07-31T09:59:59.837Z,63.14
2023-07-31T10:02:58.747Z,62.05
2023-07-31T10:06:26.739Z,60.53
2023-07-31T10:47:03.013Z,60.51
2023-07-31T10:49:33.135Z,61.14
2023-07-31T10:52:27.500Z,61.42
2023-07-31T10:56:07.936Z,59.92
2023-07-31T10:59:14.139Z,61.06
2023-07-31T11:05:12.625Z,64.33
2023-07-31T11:08:15.876Z,63.33
2023-07-31T11:15:07.984Z,60.60
2023-07-31T11:17:57.024Z,60.11
2023-07-31T11:20:45.159Z,59.36
2023-07-31T11:23:13.338Z,60.83
2023-07-31T11:25:55.873Z,62.45
2023-07-31T11:28:36.971Z,63.11
2023-07-31T11:31:25.929Z,62.25
2023-07-31T11:34:24.287Z,60.81
2023-07-31T11:37:00.254Z,60.09
2023-07-31T11:39:44.259Z,59.15
2023-07-31T11:42:28.456Z,60.24
2023-07-31T11:45:11.079Z,62.41
2023-07-31T11:47:46.496Z,62.12
2023-07-31T11:50:36.447Z,60.86
2023-07-31T11:53:08.944Z,60.41
2023-07-31T11:55:37.241Z,58.72
2023-07-31T11:58:06.614Z,59.32
2023-07-31T12:00:36.836Z,60.69
2023-07-31T12:03:04.516Z,62.16
2023-07-31T12:05:32.685Z,62.79
2023-07-31T12:08:20.554Z,61.67
2023-07-31T12:11:12.555Z,60.69
2023-07-31T12:13:42.733Z,59.56
2023-07-31T12:16:13.479Z,59.33
2023-07-31T12:18:41.476Z,60.98
2023-07-31T12:21:12.304Z,62.70
2023-07-31T12:23:47.071Z,63.25
2023-07-31T12:26:17.700Z,62.07
2023-07-31T12:28:49.633Z,60.78
2023-07-31T12:31:22.229Z,59.76
2023-07-31T12:33:51.806Z,60.75
2023-07-31T12:36:23.213Z,61.61
2023-07-31T12:38:51.959Z,62.57
2023-07-31T12:41:19.707Z,63.41
2023-07-31T12:43:47.513Z,62.10
2023-07-31T12:46:15.460Z,60.71
2023-07-31T12:48:43.346Z,59.08
2023-07-31T12:51:11.123Z,59.61
2023-07-31T12:53:38.435Z,60.74
2023-07-31T12:56:06.185Z,61.60
2023-07-31T12:58:33.972Z,62.39
2023-07-31T13:01:02.702Z,60.68
2023-07-31T13:03:30.245Z,59.01
2023-07-31T13:05:58.281Z,59.56
2023-07-31T13:08:25.554Z,60.64
2023-07-31T13:10:52.979Z,61.68
2023-07-31T13:13:20.640Z,62.90
2023-07-31T13:15:48.693Z,62.19
2023-07-31T13:18:16.345Z,60.76
2023-07-31T13:20:43.631Z,59.24
2023-07-31T13:23:10.840Z,58.76
2023-07-31T13:25:38.103Z,60.14
2023-07-31T13:28:05.291Z,61.14
2023-07-31T13:30:32.701Z,61.95
2023-07-31T13:32:59.942Z,63.01
2023-07-31T13:35:27.303Z,62.30
2023-07-31T13:37:54.457Z,59.99
2023-07-31T13:40:22.292Z,58.45
2023-07-31T13:42:49.457Z,59.42
2023-07-31T13:45:16.793Z,60.73
2023-07-31T13:47:44.031Z,61.26
2023-07-31T13:50:11.435Z,62.04
2023-07-31T13:52:38.967Z,62.83
2023-07-31T13:55:06.762Z,61.48
2023-07-31T13:57:34.861Z,59.86
2023-07-31T14:00:02.866Z,57.39
2023-07-31T14:02:32.233Z,58.10
2023-07-31T14:04:59.677Z,59.28
2023-07-31T14:07:27.438Z,59.87
2023-07-31T14:09:55.173Z,60.65
2023-07-31T14:12:39.998Z,60.83
2023-07-31T14:15:10.126Z,61.12
2023-07-31T14:17:37.512Z,61.61
2023-07-31T14:20:05.842Z,61.41
2023-07-31T14:22:34.694Z,61.59
2023-07-31T14:25:02.910Z,62.21
2023-07-31T14:27:30.590Z,60.51
2023-07-31T14:29:58.018Z,57.86
2023-07-31T14:32:26.051Z,57.80
2023-07-31T14:34:55.186Z,57.24
2023-07-31T14:37:23.238Z,57.06
2023-07-31T14:39:51.960Z,56.56
2023-07-31T14:42:19.927Z,55.95
2023-07-31T14:44:47.876Z,56.56
2023-07-31T14:47:15.620Z,57.06
2023-07-31T14:49:42.965Z,56.97
2023-07-31T14:52:11.483Z,56.30
2023-07-31T14:54:39.529Z,56.01
2023-07-31T14:57:07.422Z,55.56
2023-07-31T14:59:35.489Z,55.50
2023-07-31T15:02:03.700Z,55.72
2023-07-31T15:04:31.472Z,56.27
2023-07-31T15:06:58.842Z,56.36
2023-07-31T15:09:26.619Z,55.88
2023-07-31T15:11:54.634Z,56.09
2023-07-31T15:14:22.436Z,56.07
2023-07-31T15:16:50.446Z,55.77
2023-07-31T15:19:17.719Z,55.33
2023-07-31T15:21:45.120Z,54.85
2023-07-31T15:24:12.477Z,54.26
2023-07-31T15:26:39.988Z,53.76
2023-07-31T15:29:16.106Z,54.19
2023-07-31T15:31:43.827Z,54.83
2023-07-31T15:34:11.284Z,54.76
2023-07-31T15:36:38.900Z,54.83
2023-07-31T15:39:08.890Z,55.22
2023-07-31T15:41:37.102Z,55.75
2023-07-31T15:44:07.138Z,55.07
2023-07-31T15:46:35.572Z,52.89
2023-07-31T15:49:04.644Z,50.99
2023-07-31T15:51:34.371Z,49.00
2023-07-31T15:54:02.331Z,48.63
2023-07-31T15:56:30.824Z,48.90
2023-07-31T15:58:59.134Z,48.09
2023-07-31T16:01:27.211Z,48.94
2023-07-31T16:03:54.687Z,49.45
2023-07-31T16:06:22.957Z,50.27
2023-07-31T16:08:50.726Z,50.58
2023-07-31T16:11:18.117Z,50.80
2023-07-31T16:13:45.955Z,51.00
2023-07-31T16:16:13.739Z,50.33
2023-07-31T16:18:41.981Z,49.78
2023-07-31T16:21:10.573Z,49.68
2023-07-31T16:23:38.349Z,50.12
2023-07-31T16:26:06.734Z,50.79
2023-07-31T16:28:34.019Z,51.44
2023-07-31T16:31:01.359Z,52.06
2023-07-31T16:33:28.809Z,52.10
2023-07-31T16:35:56.077Z,52.24
2023-07-31T16:38:23.432Z,52.71
2023-07-31T16:40:51.025Z,53.10
2023-07-31T16:43:18.854Z,53.72
2023-07-31T16:45:46.237Z,54.08
2023-07-31T16:48:14.033Z,54.55
2023-07-31T16:50:41.741Z,54.86
2023-07-31T16:53:09.273Z,55.14
2023-07-31T16:55:37.108Z,55.51
2023-07-31T16:58:04.499Z,55.84
2023-07-31T17:00:33.109Z,56.27
2023-07-31T17:03:01.856Z,56.08
2023-07-31T17:05:30.052Z,56.16
2023-07-31T17:07:57.362Z,56.32
2023-07-31T17:10:25.109Z,56.60
2023-07-31T17:12:52.298Z,56.65
2023-07-31T17:15:19.830Z,56.50
2023-07-31T17:17:50.542Z,56.01
2023-07-31T17:20:18.931Z,56.02
2023-07-31T17:22:49.265Z,56.00
2023-07-31T17:25:20.360Z,55.78
2023-07-31T17:27:49.999Z,56.07
2023-07-31T17:30:18.854Z,56.24
2023-07-31T17:32:46.285Z,56.07
2023-07-31T17:35:13.856Z,56.28
2023-07-31T17:37:41.429Z,56.48
2023-07-31T17:40:09.826Z,56.71
2023-07-31T17:42:37.197Z,56.92
2023-07-31T17:45:04.887Z,56.76
2023-07-31T17:47:32.319Z,57.05
2023-07-31T17:49:59.764Z,57.22
2023-07-31T17:52:27.275Z,57.38
2023-07-31T17:54:54.918Z,57.35
2023-07-31T17:57:22.254Z,57.50
2023-07-31T17:59:51.747Z,57.75
2023-07-31T18:02:20.000Z,57.92
2023-07-31T18:04:47.360Z,58.02
2023-07-31T18:07:14.579Z,58.24
2023-07-31T18:09:42.047Z,58.50
2023-07-31T18:12:09.330Z,58.70
2023-07-31T18:14:38.423Z,58.92
2023-07-31T18:17:06.124Z,59.10
2023-07-31T18:19:33.576Z,59.33
2023-07-31T18:22:00.848Z,59.51
2023-07-31T18:24:28.240Z,59.63
2023-07-31T18:26:55.461Z,59.77
2023-07-31T18:29:23.352Z,59.98
2023-07-31T18:31:50.510Z,60.10
2023-07-31T18:34:17.769Z,60.28
2023-07-31T18:36:45.037Z,60.59
2023-07-31T18:39:12.266Z,60.78
2023-07-31T18:41:40.584Z,60.89
2023-07-31T18:44:07.799Z,61.06
2023-07-31T18:46:35.570Z,61.29
2023-07-31T18:49:03.663Z,61.54
2023-07-31T18:51:33.147Z,61.53
2023-07-31T18:54:00.882Z,61.80
2023-07-31T18:56:28.426Z,62.02
2023-07-31T18:58:55.697Z,62.23
2023-07-31T19:01:24.939Z,62.39
2023-07-31T19:03:52.422Z,60.78
2023-07-31T19:06:19.804Z,58.44
2023-07-31T19:08:47.933Z,58.00
2023-07-31T19:11:24.444Z,58.70
2023-07-31T19:14:00.309Z,59.34
2023-07-31T19:16:28.069Z,59.84
2023-07-31T19:18:55.411Z,60.25
2023-07-31T19:21:23.731Z,60.66
2023-07-31T19:23:52.482Z,61.04
2023-07-31T19:26:22.523Z,61.23
2023-07-31T19:28:49.926Z,61.56
2023-07-31T19:31:17.261Z,61.66
2023-07-31T19:33:44.494Z,61.96
2023-07-31T19:36:11.806Z,62.28
2023-07-31T19:38:39.574Z,62.51
2023-07-31T19:41:07.067Z,62.40
2023-07-31T19:43:34.378Z,60.75
2023-07-31T19:46:01.905Z,58.35
2023-07-31T19:48:29.246Z,58.04
2023-07-31T19:50:56.619Z,58.79
2023-07-31T19:53:23.909Z,59.56
2023-07-31T19:55:51.393Z,60.21
2023-07-31T19:58:18.807Z,60.62
2023-07-31T20:00:46.792Z,60.96
2023-07-31T20:03:14.020Z,61.37
2023-07-31T20:05:41.996Z,61.67
2023-07-31T20:08:09.336Z,62.05
2023-07-31T20:10:36.696Z,62.36
2023-07-31T20:13:04.080Z,62.59
2023-07-31T20:15:31.285Z,61.30
2023-07-31T20:17:58.525Z,58.98
2023-07-31T20:20:25.829Z,58.50
2023-07-31T20:22:53.116Z,59.52
2023-07-31T20:25:20.479Z,60.36
2023-07-31T20:27:47.720Z,60.93
2023-07-31T20:30:14.990Z,61.49
2023-07-31T20:32:42.790Z,61.92
2023-07-31T20:35:10.086Z,62.49
2023-07-31T20:37:37.341Z,61.99
2023-07-31T20:40:08.520Z,59.93
2023-07-31T20:42:36.057Z,58.27
2023-07-31T20:45:03.628Z,58.51
2023-07-31T20:47:31.109Z,59.47
2023-07-31T20:50:01.014Z,60.23
2023-07-31T20:52:28.441Z,60.89
2023-07-31T20:54:55.921Z,61.37
2023-07-31T20:57:23.146Z,61.85
2023-07-31T20:59:50.456Z,62.50
2023-07-31T21:02:17.801Z,61.81
2023-07-31T21:04:45.279Z,59.86
2023-07-31T21:07:15.574Z,58.47
2023-07-31T21:09:47.986Z,59.18
2023-07-31T21:12:15.358Z,60.13
2023-07-31T21:14:43.087Z,60.88
2023-07-31T21:17:10.606Z,61.47
2023-07-31T21:19:37.850Z,61.97
2023-07-31T21:22:05.561Z,62.39
2023-07-31T21:24:33.023Z,61.66
2023-07-31T21:27:00.287Z,59.64
2023-07-31T21:29:27.760Z,58.33
2023-07-31T21:31:57.563Z,58.98
2023-07-31T21:34:28.035Z,59.92
2023-07-31T21:36:55.364Z,60.72
2023-07-31T21:39:22.790Z,61.28
2023-07-31T21:41:49.993Z,61.73
2023-07-31T21:44:17.235Z,62.10
2023-07-31T21:46:44.544Z,62.60
2023-07-31T21:49:11.929Z,61.92
2023-07-31T21:51:39.077Z,60.01
2023-07-31T21:54:06.420Z,58.44
2023-07-31T21:56:33.575Z,59.03
2023-07-31T21:59:00.767Z,59.99
2023-07-31T22:01:28.206Z,60.77
2023-07-31T22:03:55.458Z,61.34
2023-07-31T22:06:22.660Z,61.87
2023-07-31T22:08:49.846Z,62.56
2023-07-31T22:11:17.038Z,62.51
2023-07-31T22:13:44.219Z,60.76
2023-07-31T22:16:11.464Z,58.84
2023-07-31T22:18:38.833Z,58.26
2023-07-31T22:21:06.620Z,59.04
2023-07-31T22:23:34.112Z,59.99
2023-07-31T22:26:01.296Z,60.73
2023-07-31T22:28:28.537Z,61.28
2023-07-31T22:30:55.814Z,61.79
2023-07-31T22:33:23.000Z,62.69
2023-07-31T22:35:53.317Z,62.27
2023-07-31T22:38:20.966Z,60.51
2023-07-31T22:40:48.228Z,58.42
2023-07-31T22:43:15.902Z,58.14
2023-07-31T22:45:47.222Z,59.22
2023-07-31T22:48:14.827Z,60.08
2023-07-31T22:50:42.051Z,60.73
2023-07-31T22:53:09.227Z,61.33
2023-07-31T22:55:36.733Z,61.93
2023-07-31T22:58:03.915Z,62.56
2023-07-31T23:00:31.228Z,62.70
2023-07-31T23:02:58.698Z,60.88
2023-07-31T23:05:26.166Z,58.92
2023-07-31T23:07:53.530Z,58.29
2023-07-31T23:10:20.785Z,59.12
2023-07-31T23:12:48.110Z,60.02
2023-07-31T23:15:15.437Z,60.73
2023-07-31T23:17:42.655Z,61.31
2023-07-31T23:20:10.208Z,61.75
2023-07-31T23:22:38.216Z,62.17
2023-07-31T23:25:07.393Z,62.71
2023-07-31T23:27:34.608Z,62.53
2023-07-31T23:30:01.822Z,60.75
2023-07-31T23:32:29.031Z,58.75
2023-07-31T23:34:56.262Z,58.13
2023-07-31T23:37:23.605Z,59.00
2023-07-31T23:39:50.721Z,59.92
2023-07-31T23:42:17.969Z,60.56
2023-07-31T23:44:48.707Z,61.03
2023-07-31T23:47:24.156Z,61.56
2023-07-31T23:49:51.517Z,62.02
2023-07-31T23:52:18.763Z,62.46
2023-07-31T23:54:46.165Z,62.74
2023-07-31T23:57:13.515Z,60.93
2023-07-31T23:59:40.696Z,58.90
